Terminal Aerodrome Forecast
Issued by NWS

Home | Current Version | Previous Version | Text Only | Print | Product List | Glossary On
Versions: 1 2 3 4 5 6 7 8 9 10 11 12 13 14 15 16 17 18 19 20 21 22
000
FTUS46 KPDT 201700
TAFPSC
TAF
KPSC 201720Z 2018/2118 24006KT 6SM -RA BR OVC050
     FM202100 22011KT P6SM -RA OVC040
     FM210900 22015G30KT P6SM VCSH OVC050=

USA.gov is the U.S. government's official web portal to all federal, state and local government web resources and services.